Time;durP1;ratioP1;P1;durP2;ratioP2;P2;SDS_P1;SDS_P2;PMS_P1;PMS_P2;Temp;Humidity;BMP_temperature;BMP_pressure;BME280_temperature;BME280_humidity;BME280_pressure;Samples;Min_cycle;Max_cycle;Signal;HPM_P1;HPM_P2
2021/08/17 00:01:40;;;;;;;6.95;4.50;;;;;;;-148.56;100.00;61375.16;5014885;28;20036;-28
2021/08/17 00:05:04;;;;;;;5.10;4.18;;;;;;;-148.56;100.00;61375.16;5016501;28;20025;-29
2021/08/17 00:08:29;;;;;;;6.07;4.30;;;;;;;-148.56;100.00;61375.16;5016407;28;20033;-34
2021/08/17 00:11:52;;;;;;;7.07;3.70;;;;;;;-148.56;100.00;61375.16;5015224;28;20041;-30
2021/08/17 00:15:16;;;;;;;5.05;3.80;;;;;;;-148.56;100.00;61375.16;5013658;28;20114;-31
2021/08/17 00:18:40;;;;;;;4.80;3.95;;;;;;;-148.56;100.00;61375.16;5018488;28;20091;-27
2021/08/17 00:22:04;;;;;;;5.43;3.50;;;;;;;-148.56;100.00;61375.16;5007357;28;20498;-28
2021/08/17 00:25:28;;;;;;;7.03;3.90;;;;;;;-148.56;100.00;61375.16;5018470;28;20112;-27
2021/08/17 00:28:52;;;;;;;5.85;3.70;;;;;;;-148.56;100.00;61375.16;5016876;28;20037;-28
2021/08/17 00:32:16;;;;;;;5.60;3.63;;;;;;;-148.56;100.00;61375.16;5016461;28;20033;-30
2021/08/17 00:35:40;;;;;;;5.32;3.83;;;;;;;-148.56;100.00;61375.16;5017195;28;20440;-29
2021/08/17 00:39:04;;;;;;;8.60;3.95;;;;;;;-148.56;100.00;61375.16;5017729;28;20037;-28
2021/08/17 00:42:40;;;;;;;5.55;3.65;;;;;;;-148.56;100.00;61375.16;5014031;28;20026;-27
2021/08/17 00:46:06;;;;;;;5.18;3.88;;;;;;;-148.56;100.00;61375.16;5009587;28;20106;-28
2021/08/17 00:49:31;;;;;;;5.40;3.53;;;;;;;-148.56;100.00;61375.16;5015594;28;20428;-26
2021/08/17 00:52:57;;;;;;;6.75;3.33;;;;;;;-148.56;100.00;61375.16;5009095;28;20041;-28
2021/08/17 00:56:20;;;;;;;5.13;3.20;;;;;;;-148.56;100.00;61375.16;5009238;28;20494;-29
2021/08/17 00:59:44;;;;;;;6.35;3.10;;;;;;;-148.56;100.00;61375.16;5014770;28;20064;-31
2021/08/17 01:03:08;;;;;;;4.55;3.20;;;;;;;-148.56;100.00;61375.16;5012826;28;20029;-30
2021/08/17 01:06:34;;;;;;;4.72;3.20;;;;;;;-148.56;100.00;61375.16;5012569;28;20029;-30
2021/08/17 01:09:58;;;;;;;5.13;3.33;;;;;;;-148.56;100.00;61375.16;5009504;28;20629;-28
2021/08/17 01:13:23;;;;;;;4.53;3.28;;;;;;;-148.56;100.00;61375.16;5017338;28;20032;-28
2021/08/17 01:16:48;;;;;;;3.55;3.08;;;;;;;-148.56;100.00;61375.16;5004174;28;20819;-29
2021/08/17 01:20:15;;;;;;;3.40;3.10;;;;;;;-148.56;100.00;61375.16;5015000;28;20029;-27
2021/08/17 01:23:43;;;;;;;5.93;2.92;;;;;;;-148.56;100.00;61375.16;5013188;28;20671;-29
2021/08/17 01:27:07;;;;;;;3.80;2.97;;;;;;;-148.56;100.00;61375.16;5010975;28;20029;-28
2021/08/17 01:30:30;;;;;;;5.13;3.03;;;;;;;-148.56;100.00;61375.16;5015717;28;20034;-27
2021/08/17 01:33:54;;;;;;;3.42;2.80;;;;;;;-148.56;100.00;61375.16;5012627;28;20037;-33
2021/08/17 01:37:18;;;;;;;4.45;2.90;;;;;;;-148.56;100.00;61375.16;5008979;28;20400;-31
2021/08/17 01:40:42;;;;;;;3.65;2.80;;;;;;;-148.56;100.00;61375.16;5010525;28;20116;-29
2021/08/17 01:44:07;;;;;;;5.25;3.10;;;;;;;-148.56;100.00;61375.16;5014096;28;20534;-25
2021/08/17 01:47:31;;;;;;;4.10;2.70;;;;;;;-148.56;100.00;61375.16;5015648;28;20032;-29
2021/08/17 01:50:57;;;;;;;5.38;3.30;;;;;;;-148.56;100.00;61375.16;5013190;28;20036;-31
2021/08/17 01:54:21;;;;;;;4.45;2.83;;;;;;;-148.56;100.00;61375.16;5010964;28;20064;-28
2021/08/17 01:57:45;;;;;;;4.82;3.00;;;;;;;-148.56;100.00;61375.16;5010030;28;20033;-32
2021/08/17 02:01:12;;;;;;;3.78;3.08;;;;;;;-148.56;100.00;61375.16;5011616;28;20810;-27
2021/08/17 02:04:36;;;;;;;5.57;2.85;;;;;;;-148.56;100.00;61375.16;5017682;28;20108;-26
2021/08/17 02:08:02;;;;;;;4.43;2.60;;;;;;;-148.56;100.00;61375.16;5013848;28;20044;-30
2021/08/17 02:11:26;;;;;;;3.53;3.05;;;;;;;-148.56;100.00;61375.16;5007183;28;20057;-32
2021/08/17 02:14:49;;;;;;;3.72;2.50;;;;;;;-148.56;100.00;61375.16;5011948;28;20043;-30
2021/08/17 02:18:13;;;;;;;4.30;2.42;;;;;;;-148.56;100.00;61375.16;5014866;28;20033;-29
2021/08/17 02:21:37;;;;;;;3.03;2.50;;;;;;;-148.56;100.00;61375.16;5015538;28;20040;-28
2021/08/17 02:25:01;;;;;;;4.03;2.70;;;;;;;-148.56;100.00;61375.16;5005219;28;20113;-29
2021/08/17 02:28:25;;;;;;;3.63;2.72;;;;;;;-148.56;100.00;61375.16;5011144;28;20029;-29
2021/08/17 02:31:49;;;;;;;4.45;2.75;;;;;;;-148.56;100.00;61375.16;5010486;28;20166;-27
2021/08/17 02:35:13;;;;;;;6.13;2.58;;;;;;;-148.56;100.00;61375.16;5016241;28;20456;-30
2021/08/17 02:38:37;;;;;;;3.33;2.45;;;;;;;-148.56;100.00;61375.16;5011310;28;20060;-29
2021/08/17 02:42:01;;;;;;;3.17;2.50;;;;;;;-148.56;100.00;61375.16;5012284;28;20017;-29
2021/08/17 02:45:24;;;;;;;3.70;2.38;;;;;;;-148.56;100.00;61375.16;5010157;28;20473;-29
2021/08/17 02:48:52;;;;;;;2.83;2.25;;;;;;;-148.56;100.00;61375.16;5013152;28;20048;-27
2021/08/17 02:52:16;;;;;;;5.80;2.38;;;;;;;-148.56;100.00;61375.16;5013109;28;20030;-31
2021/08/17 02:55:40;;;;;;;3.25;2.55;;;;;;;-148.56;100.00;61375.16;5013585;28;21286;-28
2021/08/17 02:59:04;;;;;;;2.60;2.22;;;;;;;-148.56;100.00;61375.16;5013175;28;20606;-29
2021/08/17 03:02:28;;;;;;;3.40;2.33;;;;;;;-148.56;100.00;61375.16;5011355;28;20058;-30
2021/08/17 03:05:51;;;;;;;3.65;2.25;;;;;;;-148.56;100.00;61375.16;5009900;28;20041;-28
2021/08/17 03:09:15;;;;;;;4.95;2.65;;;;;;;-148.56;100.00;61375.16;5011219;28;20175;-31
2021/08/17 03:12:39;;;;;;;4.18;2.33;;;;;;;-148.56;100.00;61375.16;5015800;28;20084;-26
2021/08/17 03:16:04;;;;;;;3.10;2.47;;;;;;;-148.56;100.00;61375.16;5015370;28;20379;-27
2021/08/17 03:19:27;;;;;;;4.13;2.45;;;;;;;-148.56;100.00;61375.16;5013546;28;20515;-28
2021/08/17 03:22:51;;;;;;;2.58;2.03;;;;;;;-148.56;100.00;61375.16;5013807;28;20034;-28
2021/08/17 03:26:15;;;;;;;3.15;2.08;;;;;;;-148.56;100.00;61375.16;5014491;28;20143;-27
2021/08/17 03:29:39;;;;;;;3.35;2.40;;;;;;;-148.56;100.00;61375.16;5016060;28;20082;-28
2021/08/17 03:33:03;;;;;;;3.45;2.50;;;;;;;-148.56;100.00;61375.16;5012204;28;20037;-32
2021/08/17 03:36:27;;;;;;;3.00;2.40;;;;;;;-148.56;100.00;61375.16;5011804;28;20021;-29
2021/08/17 03:39:51;;;;;;;2.55;2.30;;;;;;;-148.56;100.00;61375.16;5012095;28;20064;-29
2021/08/17 03:43:15;;;;;;;3.20;2.13;;;;;;;-148.56;100.00;61375.16;5014093;28;20415;-27
2021/08/17 03:46:39;;;;;;;4.95;1.98;;;;;;;-148.56;100.00;61375.16;5014509;28;20045;-27
2021/08/17 03:50:04;;;;;;;2.78;2.22;;;;;;;-148.56;100.00;61375.16;5013717;28;20033;-31
2021/08/17 03:53:28;;;;;;;2.40;1.98;;;;;;;-148.56;100.00;61375.16;5014667;28;20203;-28
2021/08/17 03:56:52;;;;;;;3.67;2.25;;;;;;;-148.56;100.00;61375.16;5012684;28;20033;-28
2021/08/17 04:00:17;;;;;;;2.95;2.20;;;;;;;-148.56;100.00;61375.16;5012902;28;20279;-28
2021/08/17 04:03:41;;;;;;;3.17;2.20;;;;;;;-148.56;100.00;61375.16;5012930;28;20044;-29
2021/08/17 04:07:05;;;;;;;3.38;2.30;;;;;;;-148.56;100.00;61375.16;5010532;28;20101;-31
2021/08/17 04:10:28;;;;;;;5.18;2.20;;;;;;;-148.56;100.00;61375.16;5010935;28;20030;-29
2021/08/17 04:13:52;;;;;;;2.15;1.95;;;;;;;-148.56;100.00;61375.16;5009276;28;20045;-29
2021/08/17 04:17:16;;;;;;;5.20;2.08;;;;;;;-148.56;100.00;61375.16;5013327;28;20040;-27
2021/08/17 04:20:40;;;;;;;5.63;2.28;;;;;;;-148.56;100.00;61375.16;5016716;28;20056;-29
2021/08/17 04:24:06;;;;;;;2.53;2.08;;;;;;;-148.56;100.00;61375.16;5018165;28;20029;-29
2021/08/17 04:27:30;;;;;;;3.78;2.05;;;;;;;-148.56;100.00;61375.16;5012022;28;20041;-29
2021/08/17 04:30:54;;;;;;;3.00;2.08;;;;;;;-148.56;100.00;61375.16;5014854;28;20033;-28
2021/08/17 04:34:18;;;;;;;9.50;3.15;;;;;;;-148.56;100.00;61375.16;5016316;28;20037;-30
2021/08/17 04:37:41;;;;;;;3.33;2.22;;;;;;;-148.56;100.00;61375.16;5016897;28;20591;-30
2021/08/17 04:41:06;;;;;;;5.10;2.17;;;;;;;-148.56;100.00;61375.16;5018264;28;20095;-28
2021/08/17 04:44:30;;;;;;;4.78;2.30;;;;;;;-148.56;100.00;61375.16;5018227;28;20518;-29
2021/08/17 04:47:53;;;;;;;4.13;2.35;;;;;;;-148.56;100.00;61375.16;5008927;28;20056;-31
2021/08/17 04:51:18;;;;;;;3.10;2.17;;;;;;;-148.56;100.00;61375.16;5015112;28;20036;-29
2021/08/17 04:54:42;;;;;;;2.40;1.95;;;;;;;-148.56;100.00;61375.16;5012871;28;20524;-31
2021/08/17 04:58:06;;;;;;;5.50;2.40;;;;;;;-148.56;100.00;61375.16;5015941;28;20025;-30
2021/08/17 05:01:30;;;;;;;6.20;2.15;;;;;;;-148.56;100.00;61375.16;5015842;28;20110;-32
2021/08/17 05:04:55;;;;;;;5.10;2.17;;;;;;;-148.56;100.00;61375.16;5014581;28;20029;-30
2021/08/17 05:08:19;;;;;;;7.03;2.45;;;;;;;-148.56;100.00;61375.16;5012938;28;20119;-29
2021/08/17 05:11:43;;;;;;;5.60;2.10;;;;;;;-148.56;100.00;61375.16;5009635;28;20025;-30
2021/08/17 05:15:07;;;;;;;2.78;2.10;;;;;;;-148.56;100.00;61375.16;5013834;28;20921;-29
2021/08/17 05:18:32;;;;;;;3.05;2.10;;;;;;;-148.56;100.00;61375.16;5014110;28;20558;-29
2021/08/17 05:21:57;;;;;;;4.13;2.20;;;;;;;-148.56;100.00;61375.16;5014122;28;20041;-29
2021/08/17 05:25:21;;;;;;;5.53;2.42;;;;;;;-148.56;100.00;61375.16;5014367;28;20140;-27
2021/08/17 05:28:45;;;;;;;6.63;2.35;;;;;;;-148.56;100.00;61375.16;5010530;28;20044;-29
2021/08/17 05:32:09;;;;;;;2.78;1.88;;;;;;;-148.56;100.00;61375.16;5013551;28;20365;-27
2021/08/17 05:35:33;;;;;;;3.38;2.00;;;;;;;-148.56;100.00;61375.16;5011121;28;20094;-27
2021/08/17 05:38:57;;;;;;;3.67;2.50;;;;;;;-148.56;100.00;61375.16;5011758;28;20518;-27
2021/08/17 05:42:21;;;;;;;3.67;2.30;;;;;;;-148.56;100.00;61375.16;5012054;28;20120;-28
2021/08/17 05:45:44;;;;;;;3.53;2.20;;;;;;;-148.56;100.00;61375.16;5007153;28;20029;-28
2021/08/17 05:49:08;;;;;;;4.18;2.13;;;;;;;-148.56;100.00;61375.16;5013592;28;20615;-29
2021/08/17 05:52:33;;;;;;;4.18;2.08;;;;;;;-148.56;100.00;61375.16;5015503;28;20358;-27
2021/08/17 05:55:57;;;;;;;4.00;1.90;;;;;;;-148.56;100.00;61375.16;5014272;28;20051;-30
2021/08/17 05:59:21;;;;;;;2.40;2.10;;;;;;;-148.56;100.00;61375.16;5013296;28;20025;-30
2021/08/17 06:02:45;;;;;;;4.75;2.58;;;;;;;-148.56;100.00;61375.16;5012979;28;20021;-30
2021/08/17 06:06:09;;;;;;;3.13;2.10;;;;;;;-148.56;100.00;61375.16;5009997;28;20156;-30
2021/08/17 06:09:34;;;;;;;3.83;2.10;;;;;;;-148.56;100.00;61375.16;5014157;28;20032;-28
2021/08/17 06:12:59;;;;;;;2.50;2.05;;;;;;;-148.56;100.00;61375.16;5016484;28;20025;-27
2021/08/17 06:16:22;;;;;;;3.88;2.50;;;;;;;-148.56;100.00;61375.16;5019739;28;20642;-29
2021/08/17 06:19:46;;;;;;;3.20;2.20;;;;;;;-148.56;100.00;61375.16;5012164;28;20072;-29
2021/08/17 06:23:10;;;;;;;3.45;2.28;;;;;;;-148.56;100.00;61375.16;5016713;28;20036;-26
2021/08/17 06:26:34;;;;;;;2.00;1.80;;;;;;;-148.56;100.00;61375.16;5005600;28;20106;-28
2021/08/17 06:29:58;;;;;;;2.95;2.10;;;;;;;-148.56;100.00;61375.16;5015462;28;20029;-29
2021/08/17 06:33:22;;;;;;;2.45;1.90;;;;;;;-148.56;100.00;61375.16;5008871;28;20132;-29
2021/08/17 06:36:46;;;;;;;2.95;2.10;;;;;;;-148.56;100.00;61375.16;5011422;28;20483;-29
2021/08/17 06:40:10;;;;;;;6.10;2.03;;;;;;;-148.56;100.00;61375.16;5013036;28;20017;-29
2021/08/17 06:43:34;;;;;;;2.90;1.80;;;;;;;-148.56;100.00;61375.16;5008827;28;20886;-27
2021/08/17 06:46:58;;;;;;;5.88;3.22;;;;;;;-148.56;100.00;61375.16;5012062;28;20032;-30
2021/08/17 06:50:22;;;;;;;10.90;3.50;;;;;;;-148.56;100.00;61375.16;5007930;28;20123;-28
2021/08/17 06:53:46;;;;;;;10.95;3.85;;;;;;;-148.56;100.00;61375.16;5008846;28;20384;-29
2021/08/17 06:57:09;;;;;;;8.65;4.00;;;;;;;-148.56;100.00;61375.16;4996137;28;20091;-28
2021/08/17 07:00:33;;;;;;;8.25;3.75;;;;;;;-148.56;100.00;61375.16;5005469;28;20057;-27
2021/08/17 07:03:58;;;;;;;10.45;4.38;;;;;;;-148.56;100.00;61375.16;5006783;28;20049;-30
2021/08/17 07:07:22;;;;;;;6.53;4.07;;;;;;;-148.56;100.00;61375.16;5007502;28;20173;-30
2021/08/17 07:10:46;;;;;;;7.28;4.13;;;;;;;-148.56;100.00;61375.16;4991297;28;20054;-26
2021/08/17 07:14:10;;;;;;;5.75;4.10;;;;;;;-148.56;100.00;61375.16;4985074;28;20590;-29
2021/08/17 07:17:36;;;;;;;7.07;4.35;;;;;;;-148.56;100.00;61375.16;4983234;28;20493;-30
2021/08/17 07:21:00;;;;;;;7.80;4.65;;;;;;;-148.56;100.00;61375.16;4995683;28;20108;-27
2021/08/17 07:24:24;;;;;;;9.65;4.63;;;;;;;-148.56;100.00;61375.16;4989123;28;20132;-29
2021/08/17 07:27:48;;;;;;;7.55;4.70;;;;;;;-148.56;100.00;61375.16;4987864;28;20033;-29
2021/08/17 07:31:12;;;;;;;11.68;4.95;;;;;;;-148.56;100.00;61375.16;4986540;28;20030;-29
2021/08/17 07:34:36;;;;;;;8.00;5.18;;;;;;;-148.56;100.00;61375.16;4988103;28;20141;-29
2021/08/17 07:38:01;;;;;;;7.53;4.90;;;;;;;-148.56;100.00;61375.16;4982971;28;20392;-34
2021/08/17 07:41:25;;;;;;;8.38;5.40;;;;;;;-148.56;100.00;61375.16;4987250;28;20034;-32
2021/08/17 07:44:49;;;;;;;7.70;5.15;;;;;;;-148.56;100.00;61375.16;4988466;28;20030;-30
2021/08/17 07:48:15;;;;;;;6.82;5.28;;;;;;;-148.56;100.00;61375.16;4986151;28;20029;-33
2021/08/17 07:51:39;;;;;;;6.95;5.28;;;;;;;-148.56;100.00;61375.16;4985558;28;20034;-30
2021/08/17 07:55:04;;;;;;;8.57;5.40;;;;;;;-148.56;100.00;61375.16;4980555;28;20044;-30
2021/08/17 07:58:28;;;;;;;7.00;5.20;;;;;;;-148.56;100.00;61375.16;4986062;28;20026;-28
2021/08/17 08:01:52;;;;;;;7.20;5.43;;;;;;;-148.56;100.00;61375.16;4991113;28;20165;-29
2021/08/17 08:05:15;;;;;;;6.43;5.30;;;;;;;-148.56;100.00;61375.16;4990237;28;20396;-30
2021/08/17 08:08:41;;;;;;;9.32;5.90;;;;;;;-148.56;100.00;61375.16;4991435;28;20038;-27
2021/08/17 08:12:07;;;;;;;8.60;5.68;;;;;;;-148.56;100.00;61375.16;4989514;28;20509;-31
2021/08/17 08:15:31;;;;;;;7.40;5.70;;;;;;;-148.56;100.00;61375.16;4989125;28;20668;-28
2021/08/17 08:18:54;;;;;;;6.68;5.00;;;;;;;-148.56;100.00;61375.16;4989756;28;20515;-29
2021/08/17 08:22:18;;;;;;;12.70;6.07;;;;;;;-148.56;100.00;61375.16;4988726;28;20052;-30
2021/08/17 08:25:42;;;;;;;6.50;5.30;;;;;;;-148.56;100.00;61375.16;4982759;28;20040;-31
2021/08/17 08:29:06;;;;;;;7.43;5.45;;;;;;;-148.56;100.00;61375.16;4995218;28;20577;-30
2021/08/17 08:32:30;;;;;;;8.43;5.63;;;;;;;-148.56;100.00;61375.16;4977350;28;20064;-30
2021/08/17 08:35:54;;;;;;;6.53;5.22;;;;;;;-148.56;100.00;61375.16;4977403;28;20084;-30
2021/08/17 08:39:18;;;;;;;10.85;5.10;;;;;;;-148.56;100.00;61375.16;4983006;28;20034;-29
2021/08/17 08:42:44;;;;;;;5.75;4.55;;;;;;;-148.56;100.00;61375.16;4992583;28;20037;-32
2021/08/17 08:46:08;;;;;;;6.20;4.97;;;;;;;-148.56;100.00;61375.16;4983046;28;20152;-29
2021/08/17 08:49:32;;;;;;;8.77;4.68;;;;;;;-148.56;100.00;61375.16;4972687;28;21513;-30
2021/08/17 08:52:59;;;;;;;7.63;4.70;;;;;;;-148.56;100.00;61375.16;4979852;28;20784;-29
2021/08/17 08:56:26;;;;;;;7.68;5.18;;;;;;;-148.56;100.00;61375.16;4979693;28;20325;-31
2021/08/17 08:59:50;;;;;;;7.45;5.38;;;;;;;-148.56;100.00;61375.16;4983362;28;20021;-29
2021/08/17 09:03:15;;;;;;;8.63;5.03;;;;;;;-148.56;100.00;61375.16;4985548;28;20049;-29
2021/08/17 09:06:54;;;;;;;5.60;4.60;;;;;;;-148.56;100.00;61375.16;4982444;28;20504;-32
2021/08/17 09:10:22;;;;;;;6.95;4.70;;;;;;;-148.56;100.00;61375.16;4984969;28;20103;-29
2021/08/17 09:13:50;;;;;;;8.35;5.28;;;;;;;-148.56;100.00;61375.16;4985291;28;20065;-31
2021/08/17 09:17:24;;;;;;;6.28;4.50;;;;;;;-148.56;100.00;61375.16;4978446;28;20030;-26
2021/08/17 09:20:48;;;;;;;7.93;4.78;;;;;;;-148.56;100.00;61375.16;5002975;28;20033;-31
2021/08/17 09:24:19;;;;;;;9.55;4.80;;;;;;;-148.56;100.00;61375.16;4984800;28;20030;-30
2021/08/17 09:27:47;;;;;;;9.25;4.82;;;;;;;-148.56;100.00;61375.16;4989327;28;20528;-31
2021/08/17 09:31:33;;;;;;;7.72;4.38;;;;;;;-148.56;100.00;61375.16;4987240;28;20049;-28
2021/08/17 09:34:58;;;;;;;11.35;5.05;;;;;;;-148.56;100.00;61375.16;4986303;28;20030;-30
2021/08/17 09:38:26;;;;;;;21.63;5.97;;;;;;;-148.56;100.00;61375.16;4989811;28;20026;-28
2021/08/17 09:41:50;;;;;;;22.65;5.90;;;;;;;-148.56;100.00;61375.16;4986691;28;20048;-31
2021/08/17 09:45:17;;;;;;;20.42;5.60;;;;;;;-148.56;100.00;61375.16;4990523;28;20030;-29
2021/08/17 09:48:45;;;;;;;16.08;5.20;;;;;;;-148.56;100.00;61375.16;4983344;28;20104;-27
2021/08/17 09:52:15;;;;;;;12.65;5.15;;;;;;;-148.56;100.00;61375.16;4986781;28;20113;-28
2021/08/17 09:55:51;;;;;;;13.90;4.50;;;;;;;-148.56;100.00;61375.16;4987391;28;20026;-29
2021/08/17 09:59:19;;;;;;;9.93;4.63;;;;;;;-148.56;100.00;61375.16;4991331;28;20041;-28
2021/08/17 10:02:48;;;;;;;11.10;4.72;;;;;;;-148.56;100.00;61375.16;4993554;28;20069;-29
2021/08/17 10:06:13;;;;;;;9.27;4.68;;;;;;;-148.56;100.00;61375.16;4993855;28;20049;-28
2021/08/17 10:09:37;;;;;;;14.05;5.20;;;;;;;-148.56;100.00;61375.16;4989264;28;20034;-27
2021/08/17 10:13:02;;;;;;;13.30;5.00;;;;;;;-148.56;100.00;61375.16;4989649;28;20436;-28
2021/08/17 10:16:27;;;;;;;14.07;5.10;;;;;;;-148.56;100.00;61375.16;4988273;28;20673;-28
2021/08/17 10:19:51;;;;;;;15.38;5.47;;;;;;;-148.56;100.00;61375.16;4988682;28;20022;-29
2021/08/17 10:23:21;;;;;;;10.88;5.18;;;;;;;-148.56;100.00;61375.16;4986288;28;20033;-28
2021/08/17 10:26:45;;;;;;;15.18;5.30;;;;;;;-148.56;100.00;61375.16;4984004;28;20048;-30
2021/08/17 10:30:22;;;;;;;9.50;4.35;;;;;;;-148.56;100.00;61375.16;4990755;28;20173;-28
2021/08/17 10:33:53;;;;;;;10.90;4.47;;;;;;;-148.56;100.00;61375.16;4982512;28;20061;-29
2021/08/17 10:37:29;;;;;;;13.20;4.72;;;;;;;-148.56;100.00;61375.16;4988476;28;20492;-28
2021/08/17 10:40:53;;;;;;;12.05;4.60;;;;;;;-148.56;100.00;61375.16;4990747;28;20109;-33
2021/08/17 10:44:30;;;;;;;9.38;4.10;;;;;;;-148.56;100.00;61375.16;4980824;28;20481;-28
2021/08/17 10:47:54;;;;;;;10.00;4.20;;;;;;;-148.56;100.00;61375.16;4991017;28;20052;-29
2021/08/17 10:51:28;;;;;;;10.13;4.50;;;;;;;-148.56;100.00;61375.16;4987327;28;20064;-29
2021/08/17 10:55:18;;;;;;;12.32;4.38;;;;;;;-148.56;100.00;61375.16;4990977;28;20635;-28
2021/08/17 10:58:48;;;;;;;10.23;4.15;;;;;;;-148.56;100.00;61375.16;4994101;28;20045;-29
2021/08/17 11:02:23;;;;;;;14.68;3.95;;;;;;;-148.56;100.00;61375.16;4985750;28;20034;-31
2021/08/17 11:05:47;;;;;;;10.00;4.38;;;;;;;-148.56;100.00;61375.16;4996955;28;20113;-30
2021/08/17 11:09:36;;;;;;;9.30;4.18;;;;;;;-148.56;100.00;61375.16;4991438;28;20038;-31
2021/08/17 11:13:07;;;;;;;9.15;3.85;;;;;;;-148.56;100.00;61375.16;4987751;28;20115;-30
2021/08/17 11:16:31;;;;;;;9.48;3.17;;;;;;;-148.56;100.00;61375.16;4989985;28;20481;-33
2021/08/17 11:19:56;;;;;;;9.85;3.78;;;;;;;-148.56;100.00;61375.16;4992557;28;20026;-30
2021/08/17 11:23:21;;;;;;;6.38;3.55;;;;;;;-148.56;100.00;61375.16;5008686;28;21158;-30
2021/08/17 11:26:46;;;;;;;7.15;3.70;;;;;;;-148.56;100.00;61375.16;5009527;28;20428;-31
2021/08/17 11:30:15;;;;;;;6.53;3.58;;;;;;;-148.56;100.00;61375.16;5007966;28;20038;-30
2021/08/17 11:33:42;;;;;;;6.82;3.70;;;;;;;-148.56;100.00;61375.16;5013536;28;20034;-30
2021/08/17 11:37:18;;;;;;;5.90;3.50;;;;;;;-148.56;100.00;61375.16;5009529;28;20044;-29
2021/08/17 11:40:45;;;;;;;4.93;3.30;;;;;;;-148.56;100.00;61375.16;5013278;28;21045;-30
2021/08/17 11:44:10;;;;;;;5.93;3.42;;;;;;;-148.56;100.00;61375.16;5008059;28;20025;-30
2021/08/17 11:47:34;;;;;;;6.45;3.30;;;;;;;-148.56;100.00;61375.16;5015757;28;20404;-29
2021/08/17 11:51:05;;;;;;;462.60;247.85;;;;;;;-148.56;100.00;61375.16;5010791;28;20068;-29
2021/08/17 11:54:29;;;;;;;1023.60;689.05;;;;;;;-148.56;100.00;61375.16;5008402;28;20025;-31
2021/08/17 11:58:00;;;;;;;867.75;620.13;;;;;;;-148.56;100.00;61375.16;5011421;28;20131;-26
2021/08/17 12:01:24;;;;;;;709.72;540.15;;;;;;;-148.56;100.00;61375.16;5010392;28;20036;-32
2021/08/17 12:04:52;;;;;;;502.80;356.25;;;;;;;-148.56;100.00;61375.16;5012323;28;20037;-29
2021/08/17 12:08:16;;;;;;;317.10;187.13;;;;;;;-148.56;100.00;61375.16;5031820;28;20025;-29
2021/08/17 12:11:54;;;;;;;240.15;139.68;;;;;;;-148.56;100.00;61375.16;5009629;28;20037;-27
2021/08/17 12:15:37;;;;;;;288.13;168.63;;;;;;;-148.56;100.00;61375.16;5015333;28;20040;-28
2021/08/17 12:19:17;;;;;;;351.80;217.50;;;;;;;-148.56;100.00;61375.16;5017452;28;20033;-30
2021/08/17 12:22:41;;;;;;;312.05;190.07;;;;;;;-148.56;100.00;61375.16;5019158;28;20037;-31
2021/08/17 12:26:23;;;;;;;185.50;111.50;;;;;;;-148.56;100.00;61375.16;5016262;28;20030;-26
2021/08/17 12:29:48;;;;;;;270.15;157.48;;;;;;;-148.56;100.00;61375.16;5010415;28;20660;-30
2021/08/17 12:33:26;;;;;;;330.95;200.48;;;;;;;-148.56;100.00;61375.16;5012128;28;20024;-30
2021/08/17 12:36:52;;;;;;;279.55;161.25;;;;;;;-148.56;100.00;61375.16;5009956;28;20033;-30
2021/08/17 12:40:26;;;;;;;266.75;152.80;;;;;;;-148.56;100.00;61375.16;5006963;28;20585;-28
2021/08/17 12:43:49;;;;;;;221.20;132.75;;;;;;;-148.56;100.00;61375.16;5007969;28;20652;-28
2021/08/17 12:47:18;;;;;;;194.48;115.38;;;;;;;-148.56;100.00;61375.16;5013967;28;20036;-28
2021/08/17 12:50:42;;;;;;;171.95;104.03;;;;;;;-148.56;100.00;61375.16;5019773;28;20120;-31
2021/08/17 12:54:16;;;;;;;160.60;92.25;;;;;;;-148.56;100.00;61375.16;5013328;28;20029;-30
2021/08/17 12:57:41;;;;;;;153.40;92.25;;;;;;;-148.56;100.00;61375.16;5018777;28;20061;-26
2021/08/17 13:01:06;;;;;;;151.65;86.40;;;;;;;-148.56;100.00;61375.16;5015937;28;20510;-31
2021/08/17 13:04:30;;;;;;;131.57;79.65;;;;;;;-148.56;100.00;61375.16;5014014;28;20029;-29
2021/08/17 13:07:53;;;;;;;118.72;73.32;;;;;;;-148.56;100.00;61375.16;5020301;28;20120;-28
2021/08/17 13:11:17;;;;;;;110.40;66.40;;;;;;;-148.56;100.00;61375.16;5020225;28;20053;-31
2021/08/17 13:14:41;;;;;;;107.57;62.85;;;;;;;-148.56;100.00;61375.16;5010738;28;20818;-30
2021/08/17 13:18:05;;;;;;;89.50;57.53;;;;;;;-148.56;100.00;61375.16;5017552;28;20037;-29
2021/08/17 13:21:29;;;;;;;99.78;58.72;;;;;;;-148.56;100.00;61375.16;5017916;28;20083;-28
2021/08/17 13:24:53;;;;;;;82.68;53.15;;;;;;;-148.56;100.00;61375.16;5014275;28;20602;-29
2021/08/17 13:28:21;;;;;;;87.85;51.80;;;;;;;-148.56;100.00;61375.16;5017321;28;20037;-31
2021/08/17 13:31:44;;;;;;;81.22;47.45;;;;;;;-148.56;100.00;61375.16;5013490;28;20220;-28
2021/08/17 13:35:09;;;;;;;66.68;45.72;;;;;;;-148.56;100.00;61375.16;5015415;28;20035;-31
2021/08/17 13:38:32;;;;;;;61.92;43.42;;;;;;;-148.56;100.00;61375.16;5014497;28;20044;-29
2021/08/17 13:41:57;;;;;;;64.65;43.60;;;;;;;-148.56;100.00;61375.16;5016528;28;20164;-28
2021/08/17 13:45:21;;;;;;;60.58;40.53;;;;;;;-148.56;100.00;61375.16;5008763;28;20021;-30
2021/08/17 13:48:45;;;;;;;61.20;40.75;;;;;;;-148.56;100.00;61375.16;5016367;28;20037;-30
2021/08/17 13:52:08;;;;;;;59.97;38.42;;;;;;;-148.56;100.00;61375.16;5018434;28;20029;-28
2021/08/17 13:55:32;;;;;;;53.72;37.47;;;;;;;-148.56;100.00;61375.16;5012140;28;20048;-32
2021/08/17 13:58:56;;;;;;;47.05;34.95;;;;;;;-148.56;100.00;61375.16;5016283;28;20029;-26
2021/08/17 14:02:20;;;;;;;52.45;34.95;;;;;;;-148.56;100.00;61375.16;5019358;28;20036;-28
2021/08/17 14:05:48;;;;;;;47.30;33.40;;;;;;;-148.56;100.00;61375.16;5017330;28;20068;-29
2021/08/17 14:09:12;;;;;;;47.85;32.05;;;;;;;-148.56;100.00;61375.16;5017282;28;20044;-31
2021/08/17 14:12:37;;;;;;;46.60;31.23;;;;;;;-148.56;100.00;61375.16;5018693;28;20039;-30
2021/08/17 14:16:02;;;;;;;42.95;29.27;;;;;;;-148.56;100.00;61375.16;5016402;28;20022;-29
2021/08/17 14:19:35;;;;;;;40.88;28.33;;;;;;;-148.56;100.00;61375.16;5016581;28;20048;-29
2021/08/17 14:23:00;;;;;;;40.30;27.75;;;;;;;-148.56;100.00;61375.16;5015654;28;20043;-29
2021/08/17 14:26:25;;;;;;;37.55;25.90;;;;;;;-148.56;100.00;61375.16;5009981;28;20025;-27
2021/08/17 14:29:49;;;;;;;37.63;25.23;;;;;;;-148.56;100.00;61375.16;5015911;28;20371;-32
2021/08/17 14:33:13;;;;;;;32.35;23.92;;;;;;;-148.56;100.00;61375.16;5015586;28;20036;-27
2021/08/17 14:36:40;;;;;;;30.73;22.70;;;;;;;-148.56;100.00;61375.16;5015239;28;20033;-28
2021/08/17 14:40:05;;;;;;;31.80;21.55;;;;;;;-148.56;100.00;61375.16;5007629;28;20040;-31
2021/08/17 14:43:29;;;;;;;30.92;21.45;;;;;;;-148.56;100.00;61375.16;5014975;28;20052;-31
2021/08/17 14:46:52;;;;;;;29.02;20.38;;;;;;;-148.56;100.00;61375.16;5017267;28;20969;-28
2021/08/17 14:50:16;;;;;;;29.88;20.17;;;;;;;-148.56;100.00;61375.16;5011554;28;20117;-32
2021/08/17 14:53:40;;;;;;;27.20;19.67;;;;;;;-148.56;100.00;61375.16;5016721;28;20590;-28
2021/08/17 14:57:06;;;;;;;27.73;18.73;;;;;;;-148.56;100.00;61375.16;5012259;28;20553;-28
2021/08/17 15:00:30;;;;;;;24.75;18.13;;;;;;;-148.56;100.00;61375.16;5015592;28;20116;-31
2021/08/17 15:03:56;;;;;;;25.80;17.88;;;;;;;-148.56;100.00;61375.16;5015709;28;20102;-28
2021/08/17 15:07:19;;;;;;;25.52;17.95;;;;;;;-148.56;100.00;61375.16;5015474;28;20108;-29
2021/08/17 15:10:43;;;;;;;25.45;17.23;;;;;;;-148.56;100.00;61375.16;5012792;28;20073;-30
2021/08/17 15:14:07;;;;;;;24.52;17.50;;;;;;;-148.56;100.00;61375.16;5010422;28;20029;-31
2021/08/17 15:17:31;;;;;;;22.60;16.25;;;;;;;-148.56;100.00;61375.16;5017059;28;20056;-32
2021/08/17 15:20:59;;;;;;;20.85;14.98;;;;;;;-148.56;100.00;61375.16;5016137;28;20040;-28
2021/08/17 15:24:23;;;;;;;22.75;15.85;;;;;;;-148.56;100.00;61375.16;5016199;28;20068;-27
2021/08/17 15:27:48;;;;;;;18.27;14.88;;;;;;;-148.56;100.00;61375.16;5017154;28;20506;-28